world map with FBKE marked

FBKE - Airport

This information may not be accurate or current and is not valid for navigation or flight planning. No warranty of fitness for any purpose is made or implied.

flag of Botswana

Donate via PayPal

Additional information is available on the NEW Great Circle Mapper

Location
City:  Kasane, North-West, Botswana
ICAO / IATA:FBKE / BBK

Details
Type:Airport (Aerodrome, Airfield)
Latitude:17°49'58"S (-17.832874)
Longitude:25°09'45"E (25.162400)
Datum:WGS 1984
Elevation:3289 ft (1002 m)
Runways:1
Longest:6562 × 98 ft (2000 × 30 m)

Time
Timezone:UTC+2 (DST+4)
Local Time:

Weather
METAR:FBKE  041400Z 19010KT 160V230 9999 BKN030 FEW035CB 28/18 Q1012
TAF:FBKE  (expired)

Related Locations
Nearby:
Farthest:ITO: 12299 mi / 19794 km
Hilo [Hilo Intl], Hawaii, HI, US

Find:

   beyond  
but within

Other Information
Maps:
Sources:

  


 


Great Circle Mapper   Great Circle Mapper
Great Circle Mapper FAQ   Great Circle Mapper FAQ
  Karl's Home Page
KLSē   KLSē Home
   GC on Facebook
Airlines of the World   Airlines of the World
Donate via PayPal


Copyright © 2004-2019, Karl L. Swartz. All rights reserved.
All trademarks mentioned herein belong to their respective owners.

Please see credits for attribution and copyright information.

Karl Swartz <karl@kls2.com>
  Powered by FreeBSD
Valid HTML 4.01!
Labeled with ICRA
hCard Microformat
Geo Microformat